sensor_id;sensor_type;location;lat;lon;timestamp;pressure;altitude;pressure_sealevel;temperature;humidity
43312;BME280;30041;48.300;16.352;2024-01-27T00:01:00;100706.44;;;23.96;37.04
43312;BME280;30041;48.300;16.352;2024-01-27T00:03:25;100705.38;;;23.97;36.87
43312;BME280;30041;48.300;16.352;2024-01-27T00:05:51;100717.88;;;23.98;37.14
43312;BME280;30041;48.300;16.352;2024-01-27T00:08:17;100717.63;;;23.99;36.99
43312;BME280;30041;48.300;16.352;2024-01-27T00:10:43;100728.25;;;24.01;36.82
43312;BME280;30041;48.300;16.352;2024-01-27T00:13:09;100736.38;;;24.01;37.05
43312;BME280;30041;48.300;16.352;2024-01-27T00:15:35;100739.91;;;24.01;36.81
43312;BME280;30041;48.300;16.352;2024-01-27T00:18:00;100742.59;;;24.01;36.84
43312;BME280;30041;48.300;16.352;2024-01-27T00:20:26;100759.69;;;24.02;36.63
43312;BME280;30041;48.300;16.352;2024-01-27T00:22:52;100764.28;;;24.01;36.91
43312;BME280;30041;48.300;16.352;2024-01-27T00:25:18;100768.66;;;24.02;36.62
43312;BME280;30041;48.300;16.352;2024-01-27T00:27:44;100771.56;;;24.01;36.92
43312;BME280;30041;48.300;16.352;2024-01-27T00:30:10;100783.00;;;24.03;36.70
43312;BME280;30041;48.300;16.352;2024-01-27T00:32:36;100781.34;;;24.02;36.67
43312;BME280;30041;48.300;16.352;2024-01-27T00:35:02;100793.03;;;24.02;36.72
43312;BME280;30041;48.300;16.352;2024-01-27T00:37:28;100792.16;;;24.02;36.70
43312;BME280;30041;48.300;16.352;2024-01-27T00:39:54;100801.97;;;24.03;36.84
43312;BME280;30041;48.300;16.352;2024-01-27T00:42:20;100806.31;;;24.04;36.89
43312;BME280;30041;48.300;16.352;2024-01-27T00:44:46;100805.50;;;24.03;37.02
43312;BME280;30041;48.300;16.352;2024-01-27T00:47:12;100804.47;;;24.05;36.74
43312;BME280;30041;48.300;16.352;2024-01-27T00:49:37;100812.78;;;24.03;37.00
43312;BME280;30041;48.300;16.352;2024-01-27T00:52:03;100814.44;;;24.04;36.95
43312;BME280;30041;48.300;16.352;2024-01-27T00:54:29;100822.56;;;24.04;36.53
43312;BME280;30041;48.300;16.352;2024-01-27T00:56:55;100821.75;;;24.03;36.71
43312;BME280;30041;48.300;16.352;2024-01-27T00:59:21;100805.50;;;24.03;36.79
43312;BME280;30041;48.300;16.352;2024-01-27T01:01:47;100819.63;;;24.06;36.62
43312;BME280;30041;48.300;16.352;2024-01-27T01:04:13;100825.88;;;24.06;36.85
43312;BME280;30041;48.300;16.352;2024-01-27T01:06:40;100818.81;;;24.05;36.74
43312;BME280;30041;48.300;16.352;2024-01-27T01:09:06;100820.47;;;24.06;36.52
43312;BME280;30041;48.300;16.352;2024-01-27T01:11:32;100822.34;;;24.06;36.80
43312;BME280;30041;48.300;16.352;2024-01-27T01:13:58;100826.94;;;24.05;36.70
43312;BME280;30041;48.300;16.352;2024-01-27T01:16:23;100828.84;;;24.05;36.41
43312;BME280;30041;48.300;16.352;2024-01-27T01:18:49;100835.88;;;24.06;36.55
43312;BME280;30041;48.300;16.352;2024-01-27T01:21:15;100830.47;;;24.06;36.76
43312;BME280;30041;48.300;16.352;2024-01-27T01:23:41;100841.91;;;24.08;36.85
43312;BME280;30041;48.300;16.352;2024-01-27T01:26:07;100837.53;;;24.07;36.48
43312;BME280;30041;48.300;16.352;2024-01-27T01:28:33;100848.34;;;24.07;36.52
43312;BME280;30041;48.300;16.352;2024-01-27T01:30:59;100861.69;;;24.08;36.35
43312;BME280;30041;48.300;16.352;2024-01-27T01:33:25;100866.28;;;24.08;36.53
43312;BME280;30041;48.300;16.352;2024-01-27T01:35:50;100853.56;;;24.08;36.73
43312;BME280;30041;48.300;16.352;2024-01-27T01:38:16;100857.09;;;24.09;36.47
43312;BME280;30041;48.300;16.352;2024-01-27T01:40:42;100857.94;;;24.09;36.52
43312;BME280;30041;48.300;16.352;2024-01-27T01:43:11;100872.06;;;24.11;36.32
43312;BME280;30041;48.300;16.352;2024-01-27T01:45:37;100863.34;;;24.09;36.39
43312;BME280;30041;48.300;16.352;2024-01-27T01:48:02;100878.53;;;24.10;36.40
43312;BME280;30041;48.300;16.352;2024-01-27T01:50:28;100872.31;;;24.10;36.45
43312;BME280;30041;48.300;16.352;2024-01-27T01:52:55;100868.78;;;24.09;36.51
43312;BME280;30041;48.300;16.352;2024-01-27T01:55:21;100869.59;;;24.10;36.33
43312;BME280;30041;48.300;16.352;2024-01-27T01:57:49;100866.06;;;24.09;36.53
43312;BME280;30041;48.300;16.352;2024-01-27T02:00:15;100865.00;;;24.10;36.41
43312;BME280;30041;48.300;16.352;2024-01-27T02:02:44;100872.06;;;24.11;36.56
43312;BME280;30041;48.300;16.352;2024-01-27T02:05:13;100875.84;;;24.10;36.58
43312;BME280;30041;48.300;16.352;2024-01-27T02:07:40;100888.78;;;24.08;36.72
43312;BME280;30041;48.300;16.352;2024-01-27T02:10:12;100887.72;;;24.09;36.35
43312;BME280;30041;48.300;16.352;2024-01-27T02:12:38;100893.72;;;24.11;36.36
43312;BME280;30041;48.300;16.352;2024-01-27T02:15:04;100885.59;;;24.11;36.33
43312;BME280;30041;48.300;16.352;2024-01-27T02:17:30;100913.53;;;24.12;36.69
43312;BME280;30041;48.300;16.352;2024-01-27T02:19:56;100914.34;;;24.12;36.37
43312;BME280;30041;48.300;16.352;2024-01-27T02:22:22;100919.56;;;24.14;36.32
43312;BME280;30041;48.300;16.352;2024-01-27T02:24:48;100914.34;;;24.12;36.64
43312;BME280;30041;48.300;16.352;2024-01-27T02:27:13;100914.56;;;24.11;36.50
43312;BME280;30041;48.300;16.352;2024-01-27T02:29:39;100914.34;;;24.12;36.32
43312;BME280;30041;48.300;16.352;2024-01-27T02:32:05;100913.75;;;24.10;36.30
43312;BME280;30041;48.300;16.352;2024-01-27T02:34:34;100924.38;;;24.12;36.21
43312;BME280;30041;48.300;16.352;2024-01-27T02:37:00;100912.69;;;24.11;36.23
43312;BME280;30041;48.300;16.352;2024-01-27T02:39:26;100917.06;;;24.12;36.46
43312;BME280;30041;48.300;16.352;2024-01-27T02:41:52;100912.47;;;24.13;36.32
43312;BME280;30041;48.300;16.352;2024-01-27T02:44:17;100915.78;;;24.15;36.21
43312;BME280;30041;48.300;16.352;2024-01-27T02:46:43;100916.59;;;24.15;36.42
43312;BME280;30041;48.300;16.352;2024-01-27T02:49:09;100926.63;;;24.15;36.34
43312;BME280;30041;48.300;16.352;2024-01-27T02:51:35;100928.28;;;24.16;36.26
43312;BME280;30041;48.300;16.352;2024-01-27T02:54:01;100936.41;;;24.16;36.22
43312;BME280;30041;48.300;16.352;2024-01-27T02:56:26;100927.44;;;24.15;36.39
43312;BME280;30041;48.300;16.352;2024-01-27T02:58:53;100945.38;;;24.16;36.36
43312;BME280;30041;48.300;16.352;2024-01-27T03:01:18;100938.88;;;24.17;36.37
43312;BME280;30041;48.300;16.352;2024-01-27T03:03:44;100942.41;;;24.18;36.18
43312;BME280;30041;48.300;16.352;2024-01-27T03:06:10;100948.88;;;24.17;36.49
43312;BME280;30041;48.300;16.352;2024-01-27T03:08:36;100948.06;;;24.16;36.23
43312;BME280;30041;48.300;16.352;2024-01-27T03:11:02;100952.41;;;24.17;36.07
43312;BME280;30041;48.300;16.352;2024-01-27T03:13:27;100946.19;;;24.17;36.13
43312;BME280;30041;48.300;16.352;2024-01-27T03:15:53;100956.19;;;24.16;36.34
43312;BME280;30041;48.300;16.352;2024-01-27T03:18:19;100949.72;;;24.17;36.40
43312;BME280;30041;48.300;16.352;2024-01-27T03:20:45;100967.63;;;24.18;36.24
43312;BME280;30041;48.300;16.352;2024-01-27T03:23:11;100974.09;;;24.17;36.21
43312;BME280;30041;48.300;16.352;2024-01-27T03:25:37;100972.19;;;24.18;36.49
43312;BME280;30041;48.300;16.352;2024-01-27T03:28:05;100977.88;;;24.16;36.35
43312;BME280;30041;48.300;16.352;2024-01-27T03:30:31;100985.75;;;24.18;36.33
43312;BME280;30041;48.300;16.352;2024-01-27T03:32:57;100984.09;;;24.17;36.10
43312;BME280;30041;48.300;16.352;2024-01-27T03:35:23;101008.47;;;24.17;36.00
43312;BME280;30041;48.300;16.352;2024-01-27T03:37:49;101008.28;;;24.18;36.14
43312;BME280;30041;48.300;16.352;2024-01-27T03:40:22;101022.84;;;24.17;36.02
43312;BME280;30041;48.300;16.352;2024-01-27T03:42:48;101022.03;;;24.17;36.04
43312;BME280;30041;48.300;16.352;2024-01-27T03:45:14;101039.09;;;24.17;36.14
43312;BME280;30041;48.300;16.352;2024-01-27T03:47:40;101042.41;;;24.19;36.16
43312;BME280;30041;48.300;16.352;2024-01-27T03:50:06;101039.91;;;24.18;36.11
43312;BME280;30041;48.300;16.352;2024-01-27T03:52:32;101046.19;;;24.18;35.95
43312;BME280;30041;48.300;16.352;2024-01-27T03:54:58;101049.72;;;24.19;36.16
43312;BME280;30041;48.300;16.352;2024-01-27T03:57:23;101055.34;;;24.17;36.31
43312;BME280;30041;48.300;16.352;2024-01-27T03:59:49;101059.13;;;24.16;35.96
43312;BME280;30041;48.300;16.352;2024-01-27T04:02:15;101051.59;;;24.18;36.09
43312;BME280;30041;48.300;16.352;2024-01-27T04:04:41;101064.09;;;24.19;36.03
43312;BME280;30041;48.300;16.352;2024-01-27T04:07:10;101058.06;;;24.17;36.23
43312;BME280;30041;48.300;16.352;2024-01-27T04:09:38;101048.06;;;24.18;36.15
43312;BME280;30041;48.300;16.352;2024-01-27T04:12:07;101050.75;;;24.18;36.05
43312;BME280;30041;48.300;16.352;2024-01-27T04:14:36;101051.59;;;24.18;36.14
43312;BME280;30041;48.300;16.352;2024-01-27T04:17:02;101057.84;;;24.19;36.28
43312;BME280;30041;48.300;16.352;2024-01-27T04:19:28;101051.59;;;24.18;36.07
43312;BME280;30041;48.300;16.352;2024-01-27T04:21:53;101043.47;;;24.18;36.33
43312;BME280;30041;48.300;16.352;2024-01-27T04:24:19;101033.69;;;24.17;36.16
43312;BME280;30041;48.300;16.352;2024-01-27T04:26:45;101026.38;;;24.18;35.89
43312;BME280;30041;48.300;16.352;2024-01-27T04:29:11;101015.31;;;24.19;36.21
43312;BME280;30041;48.300;16.352;2024-01-27T04:31:39;101019.94;;;24.19;36.23
43312;BME280;30041;48.300;16.352;2024-01-27T04:34:05;101010.97;;;24.18;36.03
43312;BME280;30041;48.300;16.352;2024-01-27T04:36:31;101014.50;;;24.19;36.33
43312;BME280;30041;48.300;16.352;2024-01-27T04:38:57;101026.16;;;24.19;36.04
43312;BME280;30041;48.300;16.352;2024-01-27T04:41:23;101026.38;;;24.18;36.11
43312;BME280;30041;48.300;16.352;2024-01-27T04:43:48;101013.69;;;24.18;35.88
43312;BME280;30041;48.300;16.352;2024-01-27T04:46:15;101010.72;;;24.20;36.06
43312;BME280;30041;48.300;16.352;2024-01-27T04:48:41;101026.16;;;24.19;35.95
43312;BME280;30041;48.300;16.352;2024-01-27T04:51:06;101029.94;;;24.18;35.89
43312;BME280;30041;48.300;16.352;2024-01-27T04:53:34;101029.09;;;24.18;36.14
43312;BME280;30041;48.300;16.352;2024-01-27T04:56:00;101037.00;;;24.19;36.08
43312;BME280;30041;48.300;16.352;2024-01-27T04:58:26;101029.94;;;24.18;36.20
43312;BME280;30041;48.300;16.352;2024-01-27T05:00:54;101033.47;;;24.19;36.03
43312;BME280;30041;48.300;16.352;2024-01-27T05:03:20;101030.75;;;24.19;36.28
43312;BME280;30041;48.300;16.352;2024-01-27T05:05:45;101034.50;;;24.18;36.00
43312;BME280;30041;48.300;16.352;2024-01-27T05:08:11;101031.59;;;24.19;35.97
43312;BME280;30041;48.300;16.352;2024-01-27T05:10:37;101029.69;;;24.20;36.43
43312;BME280;30041;48.300;16.352;2024-01-27T05:13:03;101040.53;;;24.20;36.07
43312;BME280;30041;48.300;16.352;2024-01-27T05:15:31;101042.22;;;24.21;36.20
43312;BME280;30041;48.300;16.352;2024-01-27T05:17:57;101033.47;;;24.19;35.95
43312;BME280;30041;48.300;16.352;2024-01-27T05:20:23;101061.38;;;24.19;35.87
43312;BME280;30041;48.300;16.352;2024-01-27T05:22:49;101054.06;;;24.20;36.07
43312;BME280;30041;48.300;16.352;2024-01-27T05:25:15;101055.13;;;24.19;36.19
43312;BME280;30041;48.300;16.352;2024-01-27T05:27:41;101055.97;;;24.19;35.82
43312;BME280;30041;48.300;16.352;2024-01-27T05:30:07;101064.69;;;24.21;36.23
43312;BME280;30041;48.300;16.352;2024-01-27T05:32:35;101071.19;;;24.20;35.94
43312;BME280;30041;48.300;16.352;2024-01-27T05:35:01;101064.91;;;24.20;36.21
43312;BME280;30041;48.300;16.352;2024-01-27T05:37:27;101076.16;;;24.23;36.01
43312;BME280;30041;48.300;16.352;2024-01-27T05:39:53;101088.88;;;24.23;35.73
43312;BME280;30041;48.300;16.352;2024-01-27T05:42:19;101093.47;;;24.22;35.99
43312;BME280;30041;48.300;16.352;2024-01-27T05:44:44;101095.56;;;24.20;35.92
43312;BME280;30041;48.300;16.352;2024-01-27T05:47:10;101089.91;;;24.22;36.18
43312;BME280;30041;48.300;16.352;2024-01-27T05:49:36;101095.09;;;24.23;36.17
43312;BME280;30041;48.300;16.352;2024-01-27T05:52:02;101095.94;;;24.24;35.96
43312;BME280;30041;48.300;16.352;2024-01-27T05:54:28;101097.59;;;24.25;36.05
43312;BME280;30041;48.300;16.352;2024-01-27T05:56:54;101104.88;;;24.24;35.93
43312;BME280;30041;48.300;16.352;2024-01-27T05:59:20;101102.41;;;24.23;35.89
43312;BME280;30041;48.300;16.352;2024-01-27T06:01:46;101090.97;;;24.21;36.03
43312;BME280;30041;48.300;16.352;2024-01-27T06:04:12;101086.59;;;24.20;35.62
43312;BME280;30041;48.300;16.352;2024-01-27T06:06:38;101105.19;;;24.16;35.84
43312;BME280;30041;48.300;16.352;2024-01-27T06:09:04;101107.88;;;24.16;35.98
43312;BME280;30041;48.300;16.352;2024-01-27T06:11:32;101105.19;;;24.16;35.79
43312;BME280;30041;48.300;16.352;2024-01-27T06:13:58;101109.97;;;24.14;36.21
43312;BME280;30041;48.300;16.352;2024-01-27T06:16:24;101116.22;;;24.15;36.06
43312;BME280;30041;48.300;16.352;2024-01-27T06:18:49;101115.19;;;24.16;36.17
43312;BME280;30041;48.300;16.352;2024-01-27T06:21:15;101125.16;;;24.15;36.04
43312;BME280;30041;48.300;16.352;2024-01-27T06:23:44;101139.56;;;24.16;35.98
43312;BME280;30041;48.300;16.352;2024-01-27T06:26:10;101136.84;;;24.16;35.96
43312;BME280;30041;48.300;16.352;2024-01-27T06:28:38;101140.59;;;24.15;35.96
43312;BME280;30041;48.300;16.352;2024-01-27T06:31:04;101150.16;;;24.17;36.00
43312;BME280;30041;48.300;16.352;2024-01-27T06:33:30;101153.94;;;24.16;36.14
43312;BME280;30041;48.300;16.352;2024-01-27T06:35:59;101151.22;;;24.16;36.14
43312;BME280;30041;48.300;16.352;2024-01-27T06:38:27;101151.22;;;24.16;36.04
43312;BME280;30041;48.300;16.352;2024-01-27T06:40:53;101159.34;;;24.16;35.84
43312;BME280;30041;48.300;16.352;2024-01-27T06:43:19;101142.28;;;24.16;36.23
43312;BME280;30041;48.300;16.352;2024-01-27T06:45:45;101158.28;;;24.17;35.88
43312;BME280;30041;48.300;16.352;2024-01-27T06:48:11;101167.03;;;24.19;36.02
43312;BME280;30041;48.300;16.352;2024-01-27T06:50:37;101173.50;;;24.18;36.07
43312;BME280;30041;48.300;16.352;2024-01-27T06:53:05;101178.94;;;24.18;36.11
43312;BME280;30041;48.300;16.352;2024-01-27T06:55:30;101172.44;;;24.19;36.15
43312;BME280;30041;48.300;16.352;2024-01-27T06:57:56;101177.03;;;24.19;36.09
43312;BME280;30041;48.300;16.352;2024-01-27T07:00:22;101178.06;;;24.18;35.93
43312;BME280;30041;48.300;16.352;2024-01-27T07:02:48;101181.84;;;24.17;36.35
43312;BME280;30041;48.300;16.352;2024-01-27T07:05:14;101172.91;;;24.16;36.05
43312;BME280;30041;48.300;16.352;2024-01-27T07:07:40;101186.19;;;24.18;36.36
43312;BME280;30041;48.300;16.352;2024-01-27T07:10:07;101192.47;;;24.18;36.22
43312;BME280;30041;48.300;16.352;2024-01-27T07:12:33;101192.47;;;24.18;35.98
43312;BME280;30041;48.300;16.352;2024-01-27T07:15:01;101191.63;;;24.18;36.03
43312;BME280;30041;48.300;16.352;2024-01-27T07:17:32;101196.81;;;24.19;35.95
43312;BME280;30041;48.300;16.352;2024-01-27T07:20:06;101198.72;;;24.19;36.04
43312;BME280;30041;48.300;16.352;2024-01-27T07:22:31;101198.72;;;24.19;36.16
43312;BME280;30041;48.300;16.352;2024-01-27T07:24:57;101204.94;;;24.19;36.19
43312;BME280;30041;48.300;16.352;2024-01-27T07:27:23;101186.81;;;24.20;36.02
43312;BME280;30041;48.300;16.352;2024-01-27T07:29:49;101184.97;;;24.20;35.93
43312;BME280;30041;48.300;16.352;2024-01-27T07:32:15;101188.69;;;24.19;36.08
43312;BME280;30041;48.300;16.352;2024-01-27T07:34:44;101178.69;;;24.20;35.92
43312;BME280;30041;48.300;16.352;2024-01-27T07:37:09;101188.69;;;24.19;36.28
43312;BME280;30041;48.300;16.352;2024-01-27T07:39:36;101192.03;;;24.21;36.28
43312;BME280;30041;48.300;16.352;2024-01-27T07:42:02;101189.53;;;24.20;35.99
43312;BME280;30041;48.300;16.352;2024-01-27T07:44:27;101187.66;;;24.20;36.08
43312;BME280;30041;48.300;16.352;2024-01-27T07:46:56;101186.59;;;24.21;36.39
43312;BME280;30041;48.300;16.352;2024-01-27T07:49:22;101185.78;;;24.21;36.20
43312;BME280;30041;48.300;16.352;2024-01-27T07:51:48;101182.88;;;24.22;35.89
43312;BME280;30041;48.300;16.352;2024-01-27T07:54:14;101176.59;;;24.22;36.06
43312;BME280;30041;48.300;16.352;2024-01-27T07:56:40;101186.41;;;24.23;36.07
43312;BME280;30041;48.300;16.352;2024-01-27T07:59:08;101197.84;;;24.25;36.06
43312;BME280;30041;48.300;16.352;2024-01-27T08:01:36;101194.28;;;24.24;36.20
43312;BME280;30041;48.300;16.352;2024-01-27T08:04:02;101200.75;;;24.23;36.27
43312;BME280;30041;48.300;16.352;2024-01-27T08:06:31;101205.97;;;24.25;36.18
43312;BME280;30041;48.300;16.352;2024-01-27T08:08:57;101211.16;;;24.27;36.04
43312;BME280;30041;48.300;16.352;2024-01-27T08:11:23;101208.69;;;24.25;36.00
43312;BME280;30041;48.300;16.352;2024-01-27T08:13:49;101218.25;;;23.89;36.14
43312;BME280;30041;48.300;16.352;2024-01-27T08:16:15;101204.16;;;23.67;36.58
43312;BME280;30041;48.300;16.352;2024-01-27T08:18:42;101220.22;;;23.55;36.80
43312;BME280;30041;48.300;16.352;2024-01-27T08:21:08;101215.63;;;23.62;37.17
43312;BME280;30041;48.300;16.352;2024-01-27T08:23:34;101216.69;;;23.55;37.00
43312;BME280;30041;48.300;16.352;2024-01-27T08:26:00;101221.94;;;23.43;37.22
43312;BME280;30041;48.300;16.352;2024-01-27T08:28:26;101221.13;;;23.36;37.29
43312;BME280;30041;48.300;16.352;2024-01-27T08:30:52;101207.38;;;23.31;37.51
43312;BME280;30041;48.300;16.352;2024-01-27T08:33:18;101223.84;;;23.29;37.22
43312;BME280;30041;48.300;16.352;2024-01-27T08:35:46;101222.41;;;23.27;37.24
43312;BME280;30041;48.300;16.352;2024-01-27T08:38:12;101198.88;;;23.20;37.66
43312;BME280;30041;48.300;16.352;2024-01-27T08:40:38;101206.78;;;23.22;37.60
43312;BME280;30041;48.300;16.352;2024-01-27T08:43:04;101206.38;;;23.18;37.13
43312;BME280;30041;48.300;16.352;2024-01-27T08:45:30;101200.34;;;23.10;37.51
43312;BME280;30041;48.300;16.352;2024-01-27T08:47:56;101203.88;;;23.10;37.48
43312;BME280;30041;48.300;16.352;2024-01-27T08:50:22;101200.97;;;23.12;37.45
43312;BME280;30041;48.300;16.352;2024-01-27T08:52:51;101212.84;;;23.11;37.46
43312;BME280;30041;48.300;16.352;2024-01-27T08:55:19;101221.56;;;22.79;32.90
43312;BME280;30041;48.300;16.352;2024-01-27T08:57:49;101209.91;;;22.72;35.25
43312;BME280;30041;48.300;16.352;2024-01-27T09:00:15;101214.69;;;22.77;35.84
43312;BME280;30041;48.300;16.352;2024-01-27T09:02:45;101223.22;;;22.87;36.16
43312;BME280;30041;48.300;16.352;2024-01-27T09:05:11;101221.97;;;22.96;36.00
43312;BME280;30041;48.300;16.352;2024-01-27T09:07:37;101224.28;;;22.99;36.17
43312;BME280;30041;48.300;16.352;2024-01-27T09:10:03;101222.78;;;22.97;36.02
43312;BME280;30041;48.300;16.352;2024-01-27T09:12:29;101225.94;;;22.94;35.97
43312;BME280;30041;48.300;16.352;2024-01-27T09:14:55;101213.44;;;22.86;36.20
43312;BME280;30041;48.300;16.352;2024-01-27T09:17:21;101224.25;;;22.93;36.28
43312;BME280;30041;48.300;16.352;2024-01-27T09:19:47;101218.00;;;22.99;36.36
43312;BME280;30041;48.300;16.352;2024-01-27T09:22:13;101228.22;;;23.04;36.48
43312;BME280;30041;48.300;16.352;2024-01-27T09:24:40;101229.09;;;23.04;36.53
43312;BME280;30041;48.300;16.352;2024-01-27T09:27:06;101229.91;;;23.05;36.49
43312;BME280;30041;48.300;16.352;2024-01-27T09:29:31;101232.19;;;23.08;36.19
43312;BME280;30041;48.300;16.352;2024-01-27T09:31:57;101232.38;;;23.06;36.60
43312;BME280;30041;48.300;16.352;2024-01-27T09:34:23;101240.72;;;23.11;36.77
43312;BME280;30041;48.300;16.352;2024-01-27T09:36:49;101239.03;;;23.10;36.87
43312;BME280;30041;48.300;16.352;2024-01-27T09:39:15;101242.19;;;23.07;36.71
43312;BME280;30041;48.300;16.352;2024-01-27T09:41:41;101250.72;;;23.04;37.19
43312;BME280;30041;48.300;16.352;2024-01-27T09:44:07;101252.16;;;23.13;36.99
43312;BME280;30041;48.300;16.352;2024-01-27T09:46:33;101245.50;;;23.09;36.94
43312;BME280;30041;48.300;16.352;2024-01-27T09:49:01;101249.47;;;23.07;36.78
43312;BME280;30041;48.300;16.352;2024-01-27T09:51:28;101254.88;;;23.07;37.16
43312;BME280;30041;48.300;16.352;2024-01-27T09:53:54;101236.75;;;23.07;37.19
43312;BME280;30041;48.300;16.352;2024-01-27T09:56:20;101245.06;;;23.06;36.79
43312;BME280;30041;48.300;16.352;2024-01-27T09:58:46;101247.16;;;23.04;36.92
43312;BME280;30041;48.300;16.352;2024-01-27T10:01:12;101245.72;;;23.01;36.75
43312;BME280;30041;48.300;16.352;2024-01-27T10:03:41;101235.72;;;23.02;36.62
43312;BME280;30041;48.300;16.352;2024-01-27T10:06:10;101234.06;;;23.00;36.77
43312;BME280;30041;48.300;16.352;2024-01-27T10:08:37;101236.31;;;22.97;34.89
43312;BME280;30041;48.300;16.352;2024-01-27T10:11:08;101222.19;;;22.82;35.01
43312;BME280;30041;48.300;16.352;2024-01-27T10:13:34;101219.69;;;22.80;36.01
43312;BME280;30041;48.300;16.352;2024-01-27T10:16:07;101222.59;;;22.92;35.68
43312;BME280;30041;48.300;16.352;2024-01-27T10:18:34;101195.75;;;22.90;35.93
43312;BME280;30041;48.300;16.352;2024-01-27T10:21:12;101192.44;;;22.95;36.05
43312;BME280;30041;48.300;16.352;2024-01-27T10:23:41;101202.03;;;22.97;35.38
43312;BME280;30041;48.300;16.352;2024-01-27T10:26:10;101196.63;;;22.77;32.22
43312;BME280;30041;48.300;16.352;2024-01-27T10:28:36;101199.72;;;22.68;32.58
43312;BME280;30041;48.300;16.352;2024-01-27T10:33:38;101197.84;;;22.42;32.30
43312;BME280;30041;48.300;16.352;2024-01-27T10:36:04;101208.22;;;22.38;33.00
43312;BME280;30041;48.300;16.352;2024-01-27T10:38:35;101206.16;;;22.40;32.47
43312;BME280;30041;48.300;16.352;2024-01-27T10:41:03;101199.50;;;22.36;32.92
43312;BME280;30041;48.300;16.352;2024-01-27T10:43:31;101192.44;;;22.35;33.16
43312;BME280;30041;48.300;16.352;2024-01-27T10:45:57;101195.97;;;22.35;33.00
43312;BME280;30041;48.300;16.352;2024-01-27T10:48:26;101201.16;;;22.37;33.10
43312;BME280;30041;48.300;16.352;2024-01-27T10:50:52;101194.91;;;22.36;33.09
43312;BME280;30041;48.300;16.352;2024-01-27T10:53:22;101195.75;;;22.37;33.21
43312;BME280;30041;48.300;16.352;2024-01-27T10:55:50;101195.16;;;22.35;33.30
43312;BME280;30041;48.300;16.352;2024-01-27T10:58:18;101197.63;;;22.36;33.70
43312;BME280;30041;48.300;16.352;2024-01-27T11:00:45;101196.59;;;22.44;33.92
43312;BME280;30041;48.300;16.352;2024-01-27T11:03:16;101190.78;;;22.54;34.30
43312;BME280;30041;48.300;16.352;2024-01-27T11:05:46;101203.47;;;22.60;34.33
43312;BME280;30041;48.300;16.352;2024-01-27T11:08:13;101195.78;;;22.70;34.35
43312;BME280;30041;48.300;16.352;2024-01-27T11:10:40;101195.78;;;22.70;33.87
43312;BME280;30041;48.300;16.352;2024-01-27T11:13:07;101214.50;;;22.65;34.61
43312;BME280;30041;48.300;16.352;2024-01-27T11:15:34;101199.72;;;22.61;33.98
43312;BME280;30041;48.300;16.352;2024-01-27T11:18:00;101192.88;;;22.58;34.15
43312;BME280;30041;48.300;16.352;2024-01-27T11:20:26;101203.25;;;22.55;34.99
43312;BME280;30041;48.300;16.352;2024-01-27T11:22:52;101197.03;;;22.61;34.74
43312;BME280;30041;48.300;16.352;2024-01-27T11:25:19;101197.84;;;22.68;34.54
43312;BME280;30041;48.300;16.352;2024-01-27T11:27:48;101202.03;;;22.71;34.70
43312;BME280;30041;48.300;16.352;2024-01-27T11:30:27;101199.09;;;22.72;34.86
43312;BME280;30041;48.300;16.352;2024-01-27T11:32:55;101204.31;;;22.74;34.87
43312;BME280;30041;48.300;16.352;2024-01-27T11:35:21;101204.09;;;22.75;34.67
43312;BME280;30041;48.300;16.352;2024-01-27T11:37:49;101216.56;;;22.76;35.05
43312;BME280;30041;48.300;16.352;2024-01-27T11:40:18;101220.94;;;22.77;35.50
43312;BME280;30041;48.300;16.352;2024-01-27T11:42:57;101242.34;;;22.79;35.25
43312;BME280;30041;48.300;16.352;2024-01-27T11:45:24;101242.34;;;22.79;35.75
43312;BME280;30041;48.300;16.352;2024-01-27T11:47:57;101254.84;;;22.80;35.71
43312;BME280;30041;48.300;16.352;2024-01-27T11:50:23;101262.72;;;22.82;35.90
43312;BME280;30041;48.300;16.352;2024-01-27T11:52:49;101254.63;;;22.82;36.03
43312;BME280;30041;48.300;16.352;2024-01-27T11:55:15;101258.56;;;22.79;36.35
43312;BME280;30041;48.300;16.352;2024-01-27T11:57:44;101252.13;;;22.80;36.23
43312;BME280;30041;48.300;16.352;2024-01-27T12:00:13;101254.41;;;22.83;36.42
43312;BME280;30041;48.300;16.352;2024-01-27T12:02:41;101257.53;;;22.80;36.53
43312;BME280;30041;48.300;16.352;2024-01-27T12:05:10;101255.66;;;22.80;36.55
43312;BME280;30041;48.300;16.352;2024-01-27T12:07:36;101259.41;;;22.79;36.68
43312;BME280;30041;48.300;16.352;2024-01-27T12:10:03;101266.47;;;22.80;36.80
43312;BME280;30041;48.300;16.352;2024-01-27T12:12:31;101261.50;;;22.77;37.13
43312;BME280;30041;48.300;16.352;2024-01-27T12:14:57;101247.97;;;22.77;36.75
43312;BME280;30041;48.300;16.352;2024-01-27T12:17:23;101249.81;;;22.77;36.82
43312;BME280;30041;48.300;16.352;2024-01-27T12:19:52;101243.59;;;22.76;36.68
43312;BME280;30041;48.300;16.352;2024-01-27T12:22:23;101236.53;;;22.75;36.88
43312;BME280;30041;48.300;16.352;2024-01-27T12:24:49;101241.72;;;22.70;36.35
43312;BME280;30041;48.300;16.352;2024-01-27T12:27:18;101249.00;;;22.70;36.77
43312;BME280;30041;48.300;16.352;2024-01-27T12:29:47;101251.91;;;22.68;36.69
43312;BME280;30041;48.300;16.352;2024-01-27T12:32:14;101241.09;;;22.68;36.73
43312;BME280;30041;48.300;16.352;2024-01-27T12:34:43;101243.78;;;22.68;37.10
43312;BME280;30041;48.300;16.352;2024-01-27T12:37:11;101252.13;;;22.67;36.87
43312;BME280;30041;48.300;16.352;2024-01-27T12:39:37;101235.09;;;22.66;37.09